sensor_id;sensor_type;location;lat;lon;timestamp;P1;durP1;ratioP1;P2;durP2;ratioP2
69991;SDS011;57332;51.320;-0.580;2023-04-03T00:01:34;3.40;;;1.38;;
69991;SDS011;57332;51.320;-0.580;2023-04-03T00:04:01;2.88;;;1.40;;
69991;SDS011;57332;51.320;-0.580;2023-04-03T00:06:28;3.78;;;1.13;;
69991;SDS011;57332;51.320;-0.580;2023-04-03T00:08:55;3.17;;;1.00;;
69991;SDS011;57332;51.320;-0.580;2023-04-03T00:11:22;3.85;;;1.20;;
69991;SDS011;57332;51.320;-0.580;2023-04-03T00:13:49;3.90;;;1.40;;
69991;SDS011;57332;51.320;-0.580;2023-04-03T00:16:16;4.22;;;1.00;;
69991;SDS011;57332;51.320;-0.580;2023-04-03T00:18:43;5.78;;;1.45;;
69991;SDS011;57332;51.320;-0.580;2023-04-03T00:21:10;4.28;;;1.00;;
69991;SDS011;57332;51.320;-0.580;2023-04-03T00:23:38;3.40;;;1.20;;
69991;SDS011;57332;51.320;-0.580;2023-04-03T00:26:05;4.78;;;1.23;;
69991;SDS011;57332;51.320;-0.580;2023-04-03T00:28:32;3.72;;;1.13;;
69991;SDS011;57332;51.320;-0.580;2023-04-03T00:30:59;5.30;;;1.25;;
69991;SDS011;57332;51.320;-0.580;2023-04-03T00:33:26;5.13;;;1.27;;
69991;SDS011;57332;51.320;-0.580;2023-04-03T00:35:53;3.17;;;0.95;;
69991;SDS011;57332;51.320;-0.580;2023-04-03T00:38:20;3.10;;;1.20;;
69991;SDS011;57332;51.320;-0.580;2023-04-03T00:40:47;3.15;;;1.00;;
69991;SDS011;57332;51.320;-0.580;2023-04-03T00:43:16;3.10;;;1.00;;
69991;SDS011;57332;51.320;-0.580;2023-04-03T00:45:44;5.15;;;1.27;;
69991;SDS011;57332;51.320;-0.580;2023-04-03T00:48:13;4.82;;;1.23;;
69991;SDS011;57332;51.320;-0.580;2023-04-03T00:50:40;2.65;;;1.13;;
69991;SDS011;57332;51.320;-0.580;2023-04-03T00:53:08;3.65;;;1.27;;
69991;SDS011;57332;51.320;-0.580;2023-04-03T00:55:36;4.93;;;1.33;;
69991;SDS011;57332;51.320;-0.580;2023-04-03T00:58:04;4.60;;;1.40;;
69991;SDS011;57332;51.320;-0.580;2023-04-03T01:00:33;3.65;;;1.33;;
69991;SDS011;57332;51.320;-0.580;2023-04-03T01:03:01;5.03;;;1.30;;
69991;SDS011;57332;51.320;-0.580;2023-04-03T01:05:28;2.80;;;1.17;;
69991;SDS011;57332;51.320;-0.580;2023-04-03T01:07:55;5.50;;;1.63;;
69991;SDS011;57332;51.320;-0.580;2023-04-03T01:10:22;4.10;;;1.27;;
69991;SDS011;57332;51.320;-0.580;2023-04-03T01:12:50;3.15;;;1.25;;
69991;SDS011;57332;51.320;-0.580;2023-04-03T01:15:18;3.78;;;1.17;;
69991;SDS011;57332;51.320;-0.580;2023-04-03T01:17:47;5.13;;;1.77;;
69991;SDS011;57332;51.320;-0.580;2023-04-03T01:28:04;5.22;;;1.60;;
69991;SDS011;57332;51.320;-0.580;2023-04-03T01:30:33;5.47;;;1.52;;
69991;SDS011;57332;51.320;-0.580;2023-04-03T01:33:01;3.80;;;1.65;;
69991;SDS011;57332;51.320;-0.580;2023-04-03T01:35:28;5.57;;;1.25;;
69991;SDS011;57332;51.320;-0.580;2023-04-03T01:37:55;5.78;;;1.52;;
69991;SDS011;57332;51.320;-0.580;2023-04-03T01:40:22;6.10;;;1.65;;
69991;SDS011;57332;51.320;-0.580;2023-04-03T01:42:49;5.25;;;1.48;;
69991;SDS011;57332;51.320;-0.580;2023-04-03T01:45:16;3.47;;;1.50;;
69991;SDS011;57332;51.320;-0.580;2023-04-03T01:47:42;4.30;;;1.67;;
69991;SDS011;57332;51.320;-0.580;2023-04-03T01:50:09;3.92;;;1.75;;
69991;SDS011;57332;51.320;-0.580;2023-04-03T01:52:36;4.93;;;1.85;;
69991;SDS011;57332;51.320;-0.580;2023-04-03T01:55:03;4.63;;;1.65;;
69991;SDS011;57332;51.320;-0.580;2023-04-03T01:57:30;2.65;;;1.70;;
69991;SDS011;57332;51.320;-0.580;2023-04-03T01:59:57;2.63;;;1.45;;
69991;SDS011;57332;51.320;-0.580;2023-04-03T02:02:24;5.50;;;1.63;;
69991;SDS011;57332;51.320;-0.580;2023-04-03T02:04:51;4.47;;;1.58;;
69991;SDS011;57332;51.320;-0.580;2023-04-03T02:07:18;7.45;;;2.13;;
69991;SDS011;57332;51.320;-0.580;2023-04-03T02:09:44;4.88;;;1.70;;
69991;SDS011;57332;51.320;-0.580;2023-04-03T02:12:11;6.45;;;1.95;;
69991;SDS011;57332;51.320;-0.580;2023-04-03T02:14:38;4.63;;;1.52;;
69991;SDS011;57332;51.320;-0.580;2023-04-03T02:17:05;4.03;;;1.48;;
69991;SDS011;57332;51.320;-0.580;2023-04-03T02:19:35;4.78;;;1.52;;
69991;SDS011;57332;51.320;-0.580;2023-04-03T02:22:02;4.90;;;1.75;;
69991;SDS011;57332;51.320;-0.580;2023-04-03T02:24:29;4.70;;;1.42;;
69991;SDS011;57332;51.320;-0.580;2023-04-03T02:26:56;4.00;;;1.50;;
69991;SDS011;57332;51.320;-0.580;2023-04-03T02:29:23;4.50;;;1.55;;
69991;SDS011;57332;51.320;-0.580;2023-04-03T02:31:50;4.13;;;1.70;;
69991;SDS011;57332;51.320;-0.580;2023-04-03T02:34:17;11.40;;;2.05;;
69991;SDS011;57332;51.320;-0.580;2023-04-03T02:36:44;4.50;;;1.85;;
69991;SDS011;57332;51.320;-0.580;2023-04-03T02:39:11;4.55;;;1.63;;
69991;SDS011;57332;51.320;-0.580;2023-04-03T02:41:38;3.15;;;1.33;;
69991;SDS011;57332;51.320;-0.580;2023-04-03T02:44:05;6.03;;;1.50;;
69991;SDS011;57332;51.320;-0.580;2023-04-03T02:46:32;4.43;;;1.50;;
69991;SDS011;57332;51.320;-0.580;2023-04-03T02:48:59;3.75;;;1.63;;
69991;SDS011;57332;51.320;-0.580;2023-04-03T02:51:26;4.75;;;1.85;;
69991;SDS011;57332;51.320;-0.580;2023-04-03T02:53:53;4.45;;;1.73;;
69991;SDS011;57332;51.320;-0.580;2023-04-03T02:56:20;4.32;;;1.58;;
69991;SDS011;57332;51.320;-0.580;2023-04-03T02:58:47;4.68;;;1.48;;
69991;SDS011;57332;51.320;-0.580;2023-04-03T03:01:14;4.53;;;1.75;;
69991;SDS011;57332;51.320;-0.580;2023-04-03T03:03:41;4.25;;;1.52;;
69991;SDS011;57332;51.320;-0.580;2023-04-03T03:06:09;3.53;;;1.40;;
69991;SDS011;57332;51.320;-0.580;2023-04-03T03:08:36;4.53;;;1.52;;
69991;SDS011;57332;51.320;-0.580;2023-04-03T03:11:04;6.00;;;1.83;;
69991;SDS011;57332;51.320;-0.580;2023-04-03T03:13:31;7.38;;;1.98;;
69991;SDS011;57332;51.320;-0.580;2023-04-03T03:15:58;6.10;;;1.70;;
69991;SDS011;57332;51.320;-0.580;2023-04-03T03:18:25;4.35;;;1.38;;
69991;SDS011;57332;51.320;-0.580;2023-04-03T03:20:56;4.60;;;1.58;;
69991;SDS011;57332;51.320;-0.580;2023-04-03T03:23:24;3.33;;;1.60;;
69991;SDS011;57332;51.320;-0.580;2023-04-03T03:26:01;4.30;;;1.63;;
69991;SDS011;57332;51.320;-0.580;2023-04-03T03:28:28;9.30;;;1.63;;
69991;SDS011;57332;51.320;-0.580;2023-04-03T03:30:56;5.40;;;2.03;;
69991;SDS011;57332;51.320;-0.580;2023-04-03T03:33:23;10.88;;;1.85;;
69991;SDS011;57332;51.320;-0.580;2023-04-03T03:35:50;6.03;;;1.85;;
69991;SDS011;57332;51.320;-0.580;2023-04-03T03:38:17;5.88;;;1.70;;
69991;SDS011;57332;51.320;-0.580;2023-04-03T03:40:44;6.40;;;1.80;;
69991;SDS011;57332;51.320;-0.580;2023-04-03T03:43:11;6.38;;;1.95;;
69991;SDS011;57332;51.320;-0.580;2023-04-03T03:45:38;6.18;;;1.80;;
69991;SDS011;57332;51.320;-0.580;2023-04-03T03:48:05;4.55;;;1.60;;
69991;SDS011;57332;51.320;-0.580;2023-04-03T03:50:32;4.93;;;1.52;;
69991;SDS011;57332;51.320;-0.580;2023-04-03T03:52:59;4.50;;;1.60;;
69991;SDS011;57332;51.320;-0.580;2023-04-03T03:55:26;3.97;;;1.50;;
69991;SDS011;57332;51.320;-0.580;2023-04-03T03:57:53;2.38;;;1.50;;
69991;SDS011;57332;51.320;-0.580;2023-04-03T04:00:20;5.65;;;2.03;;
69991;SDS011;57332;51.320;-0.580;2023-04-03T04:02:47;3.33;;;1.80;;
69991;SDS011;57332;51.320;-0.580;2023-04-03T04:05:14;5.72;;;1.80;;
69991;SDS011;57332;51.320;-0.580;2023-04-03T04:07:41;3.00;;;1.25;;
69991;SDS011;57332;51.320;-0.580;2023-04-03T04:10:08;6.50;;;1.90;;
69991;SDS011;57332;51.320;-0.580;2023-04-03T04:12:35;4.25;;;1.70;;
69991;SDS011;57332;51.320;-0.580;2023-04-03T04:15:02;6.03;;;1.60;;
69991;SDS011;57332;51.320;-0.580;2023-04-03T04:17:29;3.38;;;1.23;;
69991;SDS011;57332;51.320;-0.580;2023-04-03T04:19:56;4.20;;;1.40;;
69991;SDS011;57332;51.320;-0.580;2023-04-03T04:22:23;3.35;;;1.40;;
69991;SDS011;57332;51.320;-0.580;2023-04-03T04:24:50;3.30;;;1.45;;
69991;SDS011;57332;51.320;-0.580;2023-04-03T04:27:17;4.35;;;1.50;;
69991;SDS011;57332;51.320;-0.580;2023-04-03T04:29:44;6.15;;;1.70;;
69991;SDS011;57332;51.320;-0.580;2023-04-03T04:32:10;4.65;;;1.60;;
69991;SDS011;57332;51.320;-0.580;2023-04-03T04:34:37;3.45;;;1.40;;
69991;SDS011;57332;51.320;-0.580;2023-04-03T04:37:04;3.80;;;1.40;;
69991;SDS011;57332;51.320;-0.580;2023-04-03T04:39:31;5.50;;;1.75;;
69991;SDS011;57332;51.320;-0.580;2023-04-03T04:41:58;4.65;;;1.73;;
69991;SDS011;57332;51.320;-0.580;2023-04-03T04:44:25;5.10;;;1.40;;
69991;SDS011;57332;51.320;-0.580;2023-04-03T04:46:52;5.00;;;1.50;;
69991;SDS011;57332;51.320;-0.580;2023-04-03T04:49:18;5.35;;;1.63;;
69991;SDS011;57332;51.320;-0.580;2023-04-03T04:51:45;3.45;;;1.85;;
69991;SDS011;57332;51.320;-0.580;2023-04-03T04:54:18;4.55;;;1.80;;
69991;SDS011;57332;51.320;-0.580;2023-04-03T04:56:44;3.83;;;1.52;;
69991;SDS011;57332;51.320;-0.580;2023-04-03T04:59:11;4.20;;;1.50;;
69991;SDS011;57332;51.320;-0.580;2023-04-03T05:01:38;7.05;;;1.75;;
69991;SDS011;57332;51.320;-0.580;2023-04-03T05:04:05;3.70;;;1.38;;
69991;SDS011;57332;51.320;-0.580;2023-04-03T05:06:32;4.88;;;1.67;;
69991;SDS011;57332;51.320;-0.580;2023-04-03T05:08:59;4.57;;;1.55;;
69991;SDS011;57332;51.320;-0.580;2023-04-03T05:11:26;3.10;;;1.50;;
69991;SDS011;57332;51.320;-0.580;2023-04-03T05:13:53;3.30;;;1.50;;
69991;SDS011;57332;51.320;-0.580;2023-04-03T05:16:20;3.67;;;1.45;;
69991;SDS011;57332;51.320;-0.580;2023-04-03T05:18:47;3.83;;;1.58;;
69991;SDS011;57332;51.320;-0.580;2023-04-03T05:21:14;6.35;;;1.85;;
69991;SDS011;57332;51.320;-0.580;2023-04-03T05:23:41;4.45;;;2.03;;
69991;SDS011;57332;51.320;-0.580;2023-04-03T05:26:08;5.10;;;1.77;;
69991;SDS011;57332;51.320;-0.580;2023-04-03T05:28:35;5.75;;;1.75;;
69991;SDS011;57332;51.320;-0.580;2023-04-03T05:31:02;4.68;;;1.90;;
69991;SDS011;57332;51.320;-0.580;2023-04-03T05:33:29;5.28;;;1.60;;
69991;SDS011;57332;51.320;-0.580;2023-04-03T05:35:56;4.05;;;1.55;;
69991;SDS011;57332;51.320;-0.580;2023-04-03T05:38:23;5.45;;;1.92;;
69991;SDS011;57332;51.320;-0.580;2023-04-03T05:40:50;5.15;;;1.77;;
69991;SDS011;57332;51.320;-0.580;2023-04-03T05:43:17;2.17;;;1.40;;
69991;SDS011;57332;51.320;-0.580;2023-04-03T05:45:44;6.53;;;2.03;;
69991;SDS011;57332;51.320;-0.580;2023-04-03T05:48:12;4.57;;;1.75;;
69991;SDS011;57332;51.320;-0.580;2023-04-03T05:50:39;6.63;;;1.75;;
69991;SDS011;57332;51.320;-0.580;2023-04-03T05:53:14;5.30;;;2.25;;
69991;SDS011;57332;51.320;-0.580;2023-04-03T05:55:42;4.93;;;1.83;;
69991;SDS011;57332;51.320;-0.580;2023-04-03T05:58:09;4.65;;;1.85;;
69991;SDS011;57332;51.320;-0.580;2023-04-03T06:00:37;4.50;;;1.38;;
69991;SDS011;57332;51.320;-0.580;2023-04-03T06:03:04;6.35;;;2.10;;
69991;SDS011;57332;51.320;-0.580;2023-04-03T06:05:31;4.60;;;1.88;;
69991;SDS011;57332;51.320;-0.580;2023-04-03T06:07:58;5.60;;;1.92;;
69991;SDS011;57332;51.320;-0.580;2023-04-03T06:10:25;6.28;;;1.70;;
69991;SDS011;57332;51.320;-0.580;2023-04-03T06:12:52;5.05;;;1.88;;
69991;SDS011;57332;51.320;-0.580;2023-04-03T06:15:19;6.32;;;1.67;;
69991;SDS011;57332;51.320;-0.580;2023-04-03T06:17:46;5.03;;;1.95;;
69991;SDS011;57332;51.320;-0.580;2023-04-03T06:20:13;7.90;;;2.28;;
69991;SDS011;57332;51.320;-0.580;2023-04-03T06:22:40;6.32;;;1.92;;
69991;SDS011;57332;51.320;-0.580;2023-04-03T06:25:08;6.65;;;2.13;;
69991;SDS011;57332;51.320;-0.580;2023-04-03T06:27:36;8.10;;;2.03;;
69991;SDS011;57332;51.320;-0.580;2023-04-03T06:30:04;7.05;;;2.05;;
69991;SDS011;57332;51.320;-0.580;2023-04-03T06:32:31;5.57;;;2.20;;
69991;SDS011;57332;51.320;-0.580;2023-04-03T06:34:58;6.35;;;2.30;;
69991;SDS011;57332;51.320;-0.580;2023-04-03T06:37:25;6.22;;;2.45;;
69991;SDS011;57332;51.320;-0.580;2023-04-03T06:39:55;4.35;;;2.10;;
69991;SDS011;57332;51.320;-0.580;2023-04-03T06:42:22;3.38;;;1.80;;
69991;SDS011;57332;51.320;-0.580;2023-04-03T06:44:49;7.57;;;2.38;;
69991;SDS011;57332;51.320;-0.580;2023-04-03T06:47:16;6.53;;;2.08;;
69991;SDS011;57332;51.320;-0.580;2023-04-03T06:49:43;6.70;;;2.35;;
69991;SDS011;57332;51.320;-0.580;2023-04-03T06:52:11;4.82;;;2.78;;
69991;SDS011;57332;51.320;-0.580;2023-04-03T06:54:39;9.77;;;2.28;;
69991;SDS011;57332;51.320;-0.580;2023-04-03T06:57:06;6.45;;;1.75;;
69991;SDS011;57332;51.320;-0.580;2023-04-03T06:59:34;5.95;;;1.98;;
69991;SDS011;57332;51.320;-0.580;2023-04-03T07:02:01;6.32;;;2.10;;
69991;SDS011;57332;51.320;-0.580;2023-04-03T07:04:27;7.40;;;2.10;;
69991;SDS011;57332;51.320;-0.580;2023-04-03T07:06:55;3.65;;;1.92;;
69991;SDS011;57332;51.320;-0.580;2023-04-03T07:09:22;5.20;;;1.95;;
69991;SDS011;57332;51.320;-0.580;2023-04-03T07:11:49;5.60;;;2.03;;
69991;SDS011;57332;51.320;-0.580;2023-04-03T07:14:16;4.70;;;1.73;;
69991;SDS011;57332;51.320;-0.580;2023-04-03T07:16:42;3.97;;;1.90;;
69991;SDS011;57332;51.320;-0.580;2023-04-03T07:19:09;4.82;;;1.83;;
69991;SDS011;57332;51.320;-0.580;2023-04-03T07:21:36;5.90;;;2.20;;
69991;SDS011;57332;51.320;-0.580;2023-04-03T07:24:03;6.50;;;2.20;;
69991;SDS011;57332;51.320;-0.580;2023-04-03T07:26:30;4.40;;;2.03;;
69991;SDS011;57332;51.320;-0.580;2023-04-03T07:28:58;6.47;;;2.25;;
69991;SDS011;57332;51.320;-0.580;2023-04-03T07:31:26;5.05;;;2.58;;
69991;SDS011;57332;51.320;-0.580;2023-04-03T07:33:53;5.82;;;2.30;;
69991;SDS011;57332;51.320;-0.580;2023-04-03T07:36:20;6.15;;;2.75;;
69991;SDS011;57332;51.320;-0.580;2023-04-03T07:38:47;7.05;;;2.60;;
69991;SDS011;57332;51.320;-0.580;2023-04-03T07:41:15;9.73;;;2.60;;
69991;SDS011;57332;51.320;-0.580;2023-04-03T07:43:44;5.90;;;2.47;;
69991;SDS011;57332;51.320;-0.580;2023-04-03T07:46:11;9.07;;;2.90;;
69991;SDS011;57332;51.320;-0.580;2023-04-03T07:48:38;8.70;;;2.60;;
69991;SDS011;57332;51.320;-0.580;2023-04-03T07:51:05;7.70;;;2.40;;
69991;SDS011;57332;51.320;-0.580;2023-04-03T07:53:32;9.88;;;3.25;;
69991;SDS011;57332;51.320;-0.580;2023-04-03T07:55:59;6.15;;;2.72;;
69991;SDS011;57332;51.320;-0.580;2023-04-03T07:58:26;6.18;;;2.53;;
69991;SDS011;57332;51.320;-0.580;2023-04-03T08:00:53;11.23;;;3.42;;
69991;SDS011;57332;51.320;-0.580;2023-04-03T08:03:20;6.93;;;2.80;;
69991;SDS011;57332;51.320;-0.580;2023-04-03T08:05:48;7.55;;;3.00;;
69991;SDS011;57332;51.320;-0.580;2023-04-03T08:08:16;7.35;;;2.72;;
69991;SDS011;57332;51.320;-0.580;2023-04-03T08:10:50;10.23;;;2.72;;
69991;SDS011;57332;51.320;-0.580;2023-04-03T08:13:18;6.97;;;2.80;;
69991;SDS011;57332;51.320;-0.580;2023-04-03T08:15:45;7.35;;;2.75;;
69991;SDS011;57332;51.320;-0.580;2023-04-03T08:18:13;5.53;;;2.67;;
69991;SDS011;57332;51.320;-0.580;2023-04-03T08:20:41;5.88;;;2.50;;
69991;SDS011;57332;51.320;-0.580;2023-04-03T08:23:08;9.07;;;3.50;;
69991;SDS011;57332;51.320;-0.580;2023-04-03T08:25:39;9.98;;;2.90;;
69991;SDS011;57332;51.320;-0.580;2023-04-03T08:28:06;7.00;;;2.47;;
69991;SDS011;57332;51.320;-0.580;2023-04-03T08:30:34;7.13;;;2.85;;
69991;SDS011;57332;51.320;-0.580;2023-04-03T08:33:01;7.90;;;2.78;;
69991;SDS011;57332;51.320;-0.580;2023-04-03T08:35:28;6.80;;;2.75;;
69991;SDS011;57332;51.320;-0.580;2023-04-03T08:37:55;6.78;;;2.80;;
69991;SDS011;57332;51.320;-0.580;2023-04-03T08:40:23;6.93;;;3.13;;
69991;SDS011;57332;51.320;-0.580;2023-04-03T08:50:40;8.25;;;2.60;;
69991;SDS011;57332;51.320;-0.580;2023-04-03T08:53:12;6.40;;;3.10;;
69991;SDS011;57332;51.320;-0.580;2023-04-03T08:55:49;6.10;;;2.80;;
69991;SDS011;57332;51.320;-0.580;2023-04-03T08:58:30;8.82;;;3.05;;
69991;SDS011;57332;51.320;-0.580;2023-04-03T09:01:02;7.43;;;3.00;;
69991;SDS011;57332;51.320;-0.580;2023-04-03T09:03:31;7.10;;;2.85;;
69991;SDS011;57332;51.320;-0.580;2023-04-03T09:06:06;6.47;;;2.70;;
69991;SDS011;57332;51.320;-0.580;2023-04-03T09:08:40;9.82;;;3.03;;
69991;SDS011;57332;51.320;-0.580;2023-04-03T09:13:43;8.60;;;3.72;;
69991;SDS011;57332;51.320;-0.580;2023-04-03T09:16:18;8.23;;;3.72;;
69991;SDS011;57332;51.320;-0.580;2023-04-03T09:18:48;7.95;;;3.60;;
69991;SDS011;57332;51.320;-0.580;2023-04-03T09:21:37;6.97;;;3.40;;
69991;SDS011;57332;51.320;-0.580;2023-04-03T09:24:05;8.60;;;3.60;;
69991;SDS011;57332;51.320;-0.580;2023-04-03T09:29:21;8.82;;;3.80;;
69991;SDS011;57332;51.320;-0.580;2023-04-03T09:31:50;9.57;;;4.38;;
69991;SDS011;57332;51.320;-0.580;2023-04-03T09:36:46;8.05;;;4.22;;
69991;SDS011;57332;51.320;-0.580;2023-04-03T09:39:26;8.07;;;3.78;;
69991;SDS011;57332;51.320;-0.580;2023-04-03T09:41:58;11.27;;;3.75;;
69991;SDS011;57332;51.320;-0.580;2023-04-03T09:44:27;10.07;;;4.32;;
69991;SDS011;57332;51.320;-0.580;2023-04-03T09:46:54;6.32;;;3.35;;
69991;SDS011;57332;51.320;-0.580;2023-04-03T09:49:22;7.38;;;3.60;;
69991;SDS011;57332;51.320;-0.580;2023-04-03T09:51:48;9.20;;;3.90;;
69991;SDS011;57332;51.320;-0.580;2023-04-03T09:54:29;9.25;;;4.60;;
69991;SDS011;57332;51.320;-0.580;2023-04-03T09:56:57;9.20;;;4.78;;
69991;SDS011;57332;51.320;-0.580;2023-04-03T09:59:27;10.48;;;5.45;;
69991;SDS011;57332;51.320;-0.580;2023-04-03T10:01:59;9.80;;;4.85;;
69991;SDS011;57332;51.320;-0.580;2023-04-03T10:04:32;10.95;;;5.50;;
69991;SDS011;57332;51.320;-0.580;2023-04-03T10:07:03;11.40;;;5.00;;
69991;SDS011;57332;51.320;-0.580;2023-04-03T10:09:34;8.55;;;4.63;;
69991;SDS011;57332;51.320;-0.580;2023-04-03T10:14:37;6.97;;;3.95;;
69991;SDS011;57332;51.320;-0.580;2023-04-03T10:19:57;7.75;;;4.38;;
69991;SDS011;57332;51.320;-0.580;2023-04-03T10:22:29;7.18;;;4.15;;
69991;SDS011;57332;51.320;-0.580;2023-04-03T10:25:00;7.50;;;4.20;;
69991;SDS011;57332;51.320;-0.580;2023-04-03T10:27:44;7.65;;;4.43;;
69991;SDS011;57332;51.320;-0.580;2023-04-03T10:36:02;7.25;;;4.03;;
69991;SDS011;57332;51.320;-0.580;2023-04-03T10:38:33;7.05;;;3.88;;
69991;SDS011;57332;51.320;-0.580;2023-04-03T10:41:17;7.35;;;4.07;;
69991;SDS011;57332;51.320;-0.580;2023-04-03T10:46:40;8.00;;;4.25;;
69991;SDS011;57332;51.320;-0.580;2023-04-03T10:51:45;6.25;;;3.90;;
69991;SDS011;57332;51.320;-0.580;2023-04-03T10:54:24;6.28;;;3.67;;
69991;SDS011;57332;51.320;-0.580;2023-04-03T10:59:46;6.18;;;3.75;;
69991;SDS011;57332;51.320;-0.580;2023-04-03T11:04:46;8.15;;;3.80;;
69991;SDS011;57332;51.320;-0.580;2023-04-03T11:07:17;7.20;;;3.50;;
69991;SDS011;57332;51.320;-0.580;2023-04-03T11:09:46;7.03;;;3.55;;
69991;SDS011;57332;51.320;-0.580;2023-04-03T11:12:31;8.43;;;4.38;;
69991;SDS011;57332;51.320;-0.580;2023-04-03T11:15:00;8.55;;;3.83;;
69991;SDS011;57332;51.320;-0.580;2023-04-03T11:17:33;9.07;;;4.10;;
69991;SDS011;57332;51.320;-0.580;2023-04-03T11:22:42;6.32;;;3.72;;
69991;SDS011;57332;51.320;-0.580;2023-04-03T11:27:40;7.68;;;3.72;;
69991;SDS011;57332;51.320;-0.580;2023-04-03T11:30:09;7.47;;;3.70;;
69991;SDS011;57332;51.320;-0.580;2023-04-03T11:32:48;6.53;;;3.50;;
69991;SDS011;57332;51.320;-0.580;2023-04-03T11:35:20;7.38;;;3.65;;
69991;SDS011;57332;51.320;-0.580;2023-04-03T11:37:48;6.07;;;3.60;;
69991;SDS011;57332;51.320;-0.580;2023-04-03T11:42:47;6.47;;;3.63;;
69991;SDS011;57332;51.320;-0.580;2023-04-03T11:47:52;6.07;;;3.63;;
69991;SDS011;57332;51.320;-0.580;2023-04-03T11:52:54;7.25;;;3.30;;
69991;SDS011;57332;51.320;-0.580;2023-04-03T12:05:54;8.18;;;3.33;;
69991;SDS011;57332;51.320;-0.580;2023-04-03T12:13:35;7.32;;;3.00;;
69991;SDS011;57332;51.320;-0.580;2023-04-03T12:16:02;7.47;;;3.22;;
69991;SDS011;57332;51.320;-0.580;2023-04-03T12:18:40;6.57;;;3.38;;
69991;SDS011;57332;51.320;-0.580;2023-04-03T12:21:09;4.30;;;2.97;;
69991;SDS011;57332;51.320;-0.580;2023-04-03T12:23:36;6.50;;;3.17;;
69991;SDS011;57332;51.320;-0.580;2023-04-03T12:26:30;5.07;;;3.03;;
69991;SDS011;57332;51.320;-0.580;2023-04-03T12:45:02;6.80;;;3.30;;
69991;SDS011;57332;51.320;-0.580;2023-04-03T12:47:37;6.70;;;3.33;;
69991;SDS011;57332;51.320;-0.580;2023-04-03T12:50:20;5.40;;;2.97;;
69991;SDS011;57332;51.320;-0.580;2023-04-03T12:52:50;4.95;;;3.10;;
69991;SDS011;57332;51.320;-0.580;2023-04-03T12:55:18;8.43;;;3.20;;
69991;SDS011;57332;51.320;-0.580;2023-04-03T12:57:45;6.32;;;3.13;;
69991;SDS011;57332;51.320;-0.580;2023-04-03T13:02:52;4.75;;;2.72;;
69991;SDS011;57332;51.320;-0.580;2023-04-03T13:05:20;7.47;;;3.50;;
69991;SDS011;57332;51.320;-0.580;2023-04-03T13:10:51;5.65;;;3.30;;
69991;SDS011;57332;51.320;-0.580;2023-04-03T13:13:19;4.28;;;2.80;;
69991;SDS011;57332;51.320;-0.580;2023-04-03T13:15:46;4.95;;;3.08;;
69991;SDS011;57332;51.320;-0.580;2023-04-03T13:18:32;4.72;;;2.80;;
69991;SDS011;57332;51.320;-0.580;2023-04-03T13:21:18;6.75;;;2.92;;
69991;SDS011;57332;51.320;-0.580;2023-04-03T13:23:47;4.60;;;3.03;;
69991;SDS011;57332;51.320;-0.580;2023-04-03T13:26:19;4.70;;;2.83;;
69991;SDS011;57332;51.320;-0.580;2023-04-03T13:28:47;5.70;;;2.53;;
69991;SDS011;57332;51.320;-0.580;2023-04-03T13:31:18;5.03;;;2.88;;
69991;SDS011;57332;51.320;-0.580;2023-04-03T13:36:23;6.38;;;3.20;;
69991;SDS011;57332;51.320;-0.580;2023-04-03T13:46:46;3.88;;;2.72;;
69991;SDS011;57332;51.320;-0.580;2023-04-03T13:49:17;6.15;;;2.70;;
69991;SDS011;57332;51.320;-0.580;2023-04-03T13:51:44;4.72;;;2.60;;
69991;SDS011;57332;51.320;-0.580;2023-04-03T13:54:22;4.20;;;2.50;;
69991;SDS011;57332;51.320;-0.580;2023-04-03T13:56:54;3.88;;;2.35;;
69991;SDS011;57332;51.320;-0.580;2023-04-03T13:59:27;4.20;;;2.28;;
69991;SDS011;57332;51.320;-0.580;2023-04-03T14:01:56;5.88;;;2.33;;
69991;SDS011;57332;51.320;-0.580;2023-04-03T14:07:03;3.78;;;2.47;;
69991;SDS011;57332;51.320;-0.580;2023-04-03T14:09:30;5.50;;;2.60;;
69991;SDS011;57332;51.320;-0.580;2023-04-03T14:12:18;7.40;;;2.83;;
69991;SDS011;57332;51.320;-0.580;2023-04-03T14:14:57;5.68;;;2.95;;
69991;SDS011;57332;51.320;-0.580;2023-04-03T14:17:25;3.58;;;2.58;;
69991;SDS011;57332;51.320;-0.580;2023-04-03T14:19:53;5.60;;;3.08;;
69991;SDS011;57332;51.320;-0.580;2023-04-03T14:22:22;7.03;;;2.78;;
69991;SDS011;57332;51.320;-0.580;2023-04-03T14:24:50;4.43;;;2.90;;
69991;SDS011;57332;51.320;-0.580;2023-04-03T14:29:45;5.25;;;2.70;;
69991;SDS011;57332;51.320;-0.580;2023-04-03T14:32:12;5.13;;;2.70;;
69991;SDS011;57332;51.320;-0.580;2023-04-03T14:34:40;4.10;;;2.58;;
69991;SDS011;57332;51.320;-0.580;2023-04-03T14:37:13;5.55;;;3.15;;
69991;SDS011;57332;51.320;-0.580;2023-04-03T14:39:41;5.25;;;2.70;;
69991;SDS011;57332;51.320;-0.580;2023-04-03T14:42:12;5.03;;;2.75;;
69991;SDS011;57332;51.320;-0.580;2023-04-03T14:44:41;5.53;;;3.17;;
69991;SDS011;57332;51.320;-0.580;2023-04-03T14:47:11;3.63;;;2.83;;
69991;SDS011;57332;51.320;-0.580;2023-04-03T14:49:55;5.70;;;2.80;;
69991;SDS011;57332;51.320;-0.580;2023-04-03T14:52:27;4.45;;;2.65;;
69991;SDS011;57332;51.320;-0.580;2023-04-03T14:54:54;4.10;;;2.42;;
69991;SDS011;57332;51.320;-0.580;2023-04-03T14:57:23;4.88;;;2.30;;
69991;SDS011;57332;51.320;-0.580;2023-04-03T14:59:50;5.05;;;2.45;;
69991;SDS011;57332;51.320;-0.580;2023-04-03T15:04:54;5.22;;;2.80;;
69991;SDS011;57332;51.320;-0.580;2023-04-03T15:07:22;6.05;;;2.97;;
69991;SDS011;57332;51.320;-0.580;2023-04-03T15:09:49;5.57;;;2.65;;
69991;SDS011;57332;51.320;-0.580;2023-04-03T15:12:16;4.85;;;2.63;;
69991;SDS011;57332;51.320;-0.580;2023-04-03T15:14:43;4.97;;;2.42;;
69991;SDS011;57332;51.320;-0.580;2023-04-03T15:17:19;6.63;;;2.45;;
69991;SDS011;57332;51.320;-0.580;2023-04-03T15:19:47;5.22;;;2.50;;
69991;SDS011;57332;51.320;-0.580;2023-04-03T15:22:16;4.10;;;2.22;;
69991;SDS011;57332;51.320;-0.580;2023-04-03T15:24:43;3.67;;;2.03;;
69991;SDS011;57332;51.320;-0.580;2023-04-03T15:27:10;4.25;;;2.10;;
69991;SDS011;57332;51.320;-0.580;2023-04-03T15:29:38;3.85;;;2.20;;
69991;SDS011;57332;51.320;-0.580;2023-04-03T15:32:06;3.58;;;1.90;;
69991;SDS011;57332;51.320;-0.580;2023-04-03T15:34:33;5.10;;;2.10;;
69991;SDS011;57332;51.320;-0.580;2023-04-03T15:37:00;4.63;;;2.08;;
69991;SDS011;57332;51.320;-0.580;2023-04-03T15:39:27;4.22;;;2.20;;
69991;SDS011;57332;51.320;-0.580;2023-04-03T15:41:54;6.15;;;2.30;;
69991;SDS011;57332;51.320;-0.580;2023-04-03T15:44:21;5.38;;;2.22;;
69991;SDS011;57332;51.320;-0.580;2023-04-03T15:46:48;5.47;;;2.30;;
69991;SDS011;57332;51.320;-0.580;2023-04-03T15:49:15;5.05;;;2.10;;
69991;SDS011;57332;51.320;-0.580;2023-04-03T15:51:42;3.80;;;2.10;;
69991;SDS011;57332;51.320;-0.580;2023-04-03T15:54:09;5.55;;;2.47;;
69991;SDS011;57332;51.320;-0.580;2023-04-03T15:56:36;8.38;;;2.55;;
69991;SDS011;57332;51.320;-0.580;2023-04-03T15:59:03;4.03;;;1.92;;
69991;SDS011;57332;51.320;-0.580;2023-04-03T16:01:30;3.90;;;1.80;;
69991;SDS011;57332;51.320;-0.580;2023-04-03T16:03:57;5.68;;;2.20;;
69991;SDS011;57332;51.320;-0.580;2023-04-03T16:06:24;4.50;;;2.00;;
69991;SDS011;57332;51.320;-0.580;2023-04-03T16:08:51;4.75;;;2.20;;
69991;SDS011;57332;51.320;-0.580;2023-04-03T16:11:26;4.13;;;1.92;;
69991;SDS011;57332;51.320;-0.580;2023-04-03T16:13:53;4.63;;;1.73;;
69991;SDS011;57332;51.320;-0.580;2023-04-03T16:16:21;3.88;;;2.00;;
69991;SDS011;57332;51.320;-0.580;2023-04-03T16:18:48;3.67;;;2.28;;
69991;SDS011;57332;51.320;-0.580;2023-04-03T16:21:16;3.38;;;1.83;;
69991;SDS011;57332;51.320;-0.580;2023-04-03T16:23:44;4.47;;;1.92;;
69991;SDS011;57332;51.320;-0.580;2023-04-03T16:26:11;4.57;;;2.60;;
69991;SDS011;57332;51.320;-0.580;2023-04-03T16:28:38;4.35;;;2.30;;
69991;SDS011;57332;51.320;-0.580;2023-04-03T16:31:06;6.00;;;2.50;;
69991;SDS011;57332;51.320;-0.580;2023-04-03T16:33:34;4.10;;;2.20;;
69991;SDS011;57332;51.320;-0.580;2023-04-03T16:36:01;5.18;;;2.25;;